^^
Your Local Weather - Clay, NY Station Historical Data
Daily Summary for May 14, 2017 Units:  Metric    English   Both
« Previous Day
Next Day »
Daily Weekly Monthly Yearly Custom
  High: Low: Average:
Temperature: 17.4 °C 6.1 °C 10.8 °C
Dew Point: 11.1 °C 4.4 °C 7.1 °C
Humidity: 94% 46% 79%
Wind Speed: 8km/h 0km/h 2.1km/h
Wind Gust: 20.9km/h - -
Wind- - West
Pressure: 1007.7 hPa 1001.6 hPa -
Precipitation: 10.16 mm    
Historical Graphs
 
 
Tabular Data for May 14, 2017
Time Temperature Dew Point Pressure Wind Wind Speed Wind Gust Humidity Rainfall Rate (Hourly) solar
00:02 9.4 °C 8.1 °C 1007.7 hPa Calm     91% 0 mm 0 W/m2
00:08 9.4 °C 8.1 °C 1007.7 hPa Calm     91% 0 mm 0 W/m2
00:13 9.4 °C 8.1 °C 1007.7 hPa Calm     91% 0 mm 0 W/m2
00:19 9.4 °C 8.2 °C 1007.7 hPa Calm     92% 0 mm 0 W/m2
00:25 9.5 °C 8.3 °C 1007.7 hPa Calm     92% 0 mm 0 W/m2
00:32 9.6 °C 8.3 °C 1007.7 hPa Calm   1.6 km/h 92% 0 mm 0 W/m2
00:38 9.6 °C 8.3 °C 1007.3 hPa Calm   1.6 km/h 92% 0 mm 0 W/m2
00:43 9.6 °C 8.3 °C 1007.3 hPa Calm     92% 0 mm 0 W/m2
00:49 9.6 °C 8.3 °C 1007.3 hPa Calm     92% 0 mm 0 W/m2
00:55 9.5 °C 8.3 °C 1007.3 hPa Calm     92% 0 mm 0 W/m2
01:02 9.5 °C 8.3 °C 1007.3 hPa Calm     92% 0 mm 0 W/m2
01:08 9.4 °C 8.2 °C 1007.3 hPa Calm     92% 0 mm 0 W/m2
01:13 9.4 °C 8.2 °C 1007.3 hPa Calm     92% 0 mm 0 W/m2
01:19 9.4 °C 8.2 °C 1007 hPa Calm     92% 0 mm 0 W/m2
01:23 9.4 °C 8.2 °C 1007.3 hPa Calm     92% 0 mm 0 W/m2
01:29 9.4 °C 8.2 °C 1007 hPa Calm     92% 0 mm 0 W/m2
01:35 9.4 °C 8.2 °C 1007 hPa Calm   1.6 km/h 92% 0 mm 0 W/m2
01:41 9.4 °C 8.2 °C 1007 hPa Calm     92% 0 mm 0 W/m2
01:48 9.4 °C 8.2 °C 1007 hPa Calm     92% 0 mm 0 W/m2
01:53 9.3 °C 8.1 °C 1007 hPa Calm     92% 0 mm 0 W/m2
01:59 9.2 °C 8 °C 1006.7 hPa Calm     92% 0 mm 0 W/m2
02:05 9.1 °C 7.9 °C 1006.7 hPa Calm     92% 0 mm 0 W/m2
02:11 9 °C 7.8 °C 1006.7 hPa Calm     92% 0 mm 0 W/m2
02:18 8.8 °C 7.6 °C 1006.7 hPa Calm     92% 0 mm 0 W/m2
02:23 8.7 °C 7.5 °C 1006.7 hPa Calm     92% 0 mm 0 W/m2
02:29 8.6 °C 7.3 °C 1006.7 hPa Calm     92% 0 mm 0 W/m2
02:35 8.4 °C 7.2 °C 1006.3 hPa Calm     92% 0 mm 0 W/m2
02:42 8.3 °C 7.1 °C 1006.3 hPa Calm     92% 0 mm 0 W/m2
02:48 8.2 °C 7 °C 1006.3 hPa Calm     92% 0 mm 0 W/m2
02:53 8.2 °C 7 °C 1006.3 hPa Calm     92% 0 mm 0 W/m2
02:59 8.2 °C 7 °C 1006 hPa Calm     92% 0 mm 0 W/m2
03:05 8.2 °C 7.2 °C 1006 hPa Calm     93% 0 mm 0 W/m2
03:11 8.2 °C 6.9 °C 1006 hPa Calm     92% 0 mm 0 W/m2
03:18 8 °C 6.8 °C 1006 hPa Calm     92% 0 mm 0 W/m2
03:23 7.9 °C 6.8 °C 1006 hPa Calm     93% 0 mm 0 W/m2
03:29 7.8 °C 6.8 °C 1006 hPa Calm     93% 0 mm 0 W/m2
03:35 7.7 °C 6.7 °C 1006 hPa Calm     93% 0 mm 0 W/m2
03:42 7.6 °C 6.5 °C 1006 hPa Calm     93% 0 mm 0 W/m2
03:48 7.3 °C 6.1 °C 1006 hPa Calm     92% 0 mm 0 W/m2
03:53 7.2 °C 6.1 °C 1006 hPa Calm     93% 0 mm 0 W/m2
03:59 7 °C 5.8 °C 1006 hPa Calm     92% 0 mm 0 W/m2
04:05 6.9 °C 5.8 °C 1006 hPa Calm     93% 0 mm 0 W/m2
04:12 6.9 °C 5.8 °C 1006 hPa Calm     93% 0 mm 0 W/m2
04:18 6.8 °C 5.8 °C 1006 hPa Calm     93% 0 mm 0 W/m2
04:23 6.8 °C 5.7 °C 1006 hPa Calm     93% 0 mm 0 W/m2
04:28 6.7 °C 5.6 °C 1006 hPa Calm     93% 0 mm 0 W/m2
04:33 6.6 °C 5.5 °C 1006 hPa Calm     93% 0 mm 0 W/m2
04:39 6.4 °C 5.4 °C 1005.6 hPa Calm     93% 0 mm 0 W/m2
04:45 6.3 °C 5.2 °C 1006 hPa Calm     93% 0 mm 0 W/m2
04:52 6.2 °C 5.1 °C 1006 hPa Calm     93% 0 mm 0 W/m2
04:58 6.2 °C 5.2 °C 1005.6 hPa Calm     93% 0 mm 0 W/m2
05:03 6.2 °C 5.1 °C 1005.6 hPa Calm     93% 0 mm 0 W/m2
05:09 6.1 °C 5.1 °C 1005.6 hPa Calm     93% 0 mm 0 W/m2
05:15 6.1 °C 5 °C 1005.6 hPa Calm     93% 0 mm 0 W/m2
05:22 6.1 °C 5 °C 1005.3 hPa Calm   1.6 km/h 93% 0 mm 0 W/m2
05:28 6.1 °C 5.1 °C 1005.3 hPa Calm   1.6 km/h 93% 0 mm 0 W/m2
05:33 6.3 °C 5.2 °C 1005.3 hPa Calm     93% 0 mm 0 W/m2
05:39 6.4 °C 5.4 °C 1005.3 hPa Calm     93% 0 mm 0 W/m2
05:45 6.6 °C 5.5 °C 1005.3 hPa Calm     93% 0 mm 0 W/m2
05:53 6.7 °C 5.7 °C 1005.3 hPa Calm   1.6 km/h 93% 0 mm 7 W/m2
05:59 6.7 °C 5.6 °C 1005.3 hPa Calm     93% 0 mm 11 W/m2
06:05 6.7 °C 5.6 °C 1005.6 hPa Calm     93% 0 mm 14 W/m2
06:12 6.7 °C 5.6 °C 1005.6 hPa Calm     93% 0 mm 21 W/m2
06:18 6.6 °C 5.6 °C 1005.6 hPa Calm     93% 0 mm 33 W/m2
06:23 6.6 °C 5.5 °C 1005.6 hPa Calm     93% 0 mm 32 W/m2
06:29 6.7 °C 5.6 °C 1005.6 hPa Calm     93% 0 mm 84 W/m2
06:35 6.9 °C 5.8 °C 1005.6 hPa Calm     93% 0 mm 95 W/m2
06:41 7 °C 6.1 °C 1005.6 hPa Calm     94% 0 mm 109 W/m2
06:48 7.4 °C 6.5 °C 1006 hPa Calm     94% 0 mm 135 W/m2
06:53 7.6 °C 6.7 °C 1006 hPa Calm     94% 0 mm 149 W/m2
06:59 7.9 °C 7 °C 1006 hPa Calm     94% 0 mm 132 W/m2
07:05 8.3 °C 7.4 °C 1006 hPa Calm     94% 0 mm 114 W/m2
07:12 8.3 °C 7.4 °C 1006 hPa Calm     94% 0 mm 91 W/m2
07:18 8.4 °C 7.6 °C 1005.6 hPa Calm   1.6 km/h 94% 0 mm 88 W/m2
07:25 8.7 °C 7.8 °C 1005.6 hPa ENE 1.6 km/h 3.2 km/h 94% 0 mm 104 W/m2
07:32 8.7 °C 7.8 °C 1005.6 hPa ENE 1.6 km/h 1.6 km/h 94% 0 mm 109 W/m2
07:38 8.8 °C 7.9 °C 1005.6 hPa East 1.6 km/h 1.6 km/h 94% 0 mm 132 W/m2
07:43 8.9 °C 8.1 °C 1005.3 hPa East 3.2 km/h 8 km/h 94% 0 mm 113 W/m2
07:49 9.1 °C 8.2 °C 1005.3 hPa East 1.6 km/h 1.6 km/h 94% 0 mm 163 W/m2
07:55 9.2 °C 8.3 °C 1005.3 hPa East 1.6 km/h 3.2 km/h 94% 0 mm 162 W/m2
08:02 9.2 °C 8.3 °C 1005.3 hPa East 1.6 km/h 3.2 km/h 94% 0 mm 174 W/m2
08:08 9.3 °C 8.3 °C 1005.3 hPa East 1.6 km/h 3.2 km/h 93% 0 mm 202 W/m2
08:13 9.4 °C 8.3 °C 1005.3 hPa SE 1.6 km/h 6.4 km/h 93% 0 mm 181 W/m2
08:19 9.6 °C 8.5 °C 1005.3 hPa SE 3.2 km/h 4.8 km/h 93% 0 mm 213 W/m2
08:25 9.7 °C 8.7 °C 1005.3 hPa SE 3.2 km/h 4.8 km/h 93% 0 mm 316 W/m2
08:32 9.9 °C 8.7 °C 1005 hPa SE 1.6 km/h 1.6 km/h 92% 0 mm 237 W/m2
08:38 10.2 °C 9 °C 1005 hPa SW 1.6 km/h 1.6 km/h 92% 0 mm 225 W/m2
08:43 10.4 °C 9.1 °C 1005 hPa South 1.6 km/h 4.8 km/h 91% 0 mm 244 W/m2
08:49 10.3 °C 8.6 °C 1005 hPa SE 1.6 km/h 1.6 km/h 89% 0 mm 230 W/m2
08:55 10.4 °C 8.6 °C 1005 hPa SE 1.6 km/h 1.6 km/h 88% 0 mm 227 W/m2
09:02 10.6 °C 8.6 °C 1005 hPa SSE 1.6 km/h 1.6 km/h 87% 0 mm 250 W/m2
09:08 10.8 °C 8.6 °C 1005 hPa Calm   1.6 km/h 86% 0 mm 234 W/m2
09:13 10.9 °C 8.3 °C 1005 hPa SSE 1.6 km/h 3.2 km/h 84% 0 mm 301 W/m2
09:19 11.3 °C 8.8 °C 1005 hPa Calm     85% 0 mm 253 W/m2
09:25 11.6 °C 8.9 °C 1005 hPa Calm     84% 0 mm 229 W/m2
09:31 11.4 °C 8.7 °C 1005 hPa SSE 1.6 km/h 1.6 km/h 83% 0 mm 295 W/m2
09:38 11.6 °C 8.7 °C 1005 hPa SSE 1.6 km/h 1.6 km/h 82% 0 mm 352 W/m2
09:43 11.9 °C 8.9 °C 1005 hPa NE 1.6 km/h 3.2 km/h 82% 0 mm 304 W/m2
09:49 12.1 °C 8.7 °C 1005 hPa SSW 3.2 km/h 4.8 km/h 80% 0 mm 309 W/m2
09:55 12 °C 8.8 °C 1005 hPa SSW 1.6 km/h 4.8 km/h 81% 0 mm 195 W/m2
10:02 11.9 °C 8.8 °C 1005 hPa Calm   1.6 km/h 81% 0 mm 211 W/m2
10:08 11.9 °C 8.6 °C 1004.6 hPa Calm   1.6 km/h 80% 0 mm 311 W/m2
10:13 12.1 °C 8.9 °C 1004.6 hPa Calm   1.6 km/h 81% 0 mm 329 W/m2
10:19 12.4 °C 9.3 °C 1004.6 hPa WNW 1.6 km/h 1.6 km/h 81% 0 mm 448 W/m2
10:25 12.6 °C 8.9 °C 1004.6 hPa WSW 1.6 km/h 4.8 km/h 78% 0 mm 464 W/m2
10:31 13 °C 8.9 °C 1004.6 hPa West 1.6 km/h 3.2 km/h 76% 0 mm 1121 W/m2
10:38 13.8 °C 9.4 °C 1004.3 hPa West 1.6 km/h 3.2 km/h 75% 0 mm 260 W/m2
10:43 13.4 °C 9.1 °C 1004.6 hPa SW 1.6 km/h 3.2 km/h 75% 0 mm 193 W/m2
10:49 13 °C 9.1 °C 1004.3 hPa SW 1.6 km/h 1.6 km/h 77% 0 mm 258 W/m2
10:55 13.1 °C 9.2 °C 1004.3 hPa Calm   1.6 km/h 77% 0 mm 294 W/m2
11:02 13.6 °C 9.2 °C 1004.3 hPa NNW 1.6 km/h 3.2 km/h 75% 0 mm 320 W/m2
11:08 13.5 °C 9.7 °C 1004.3 hPa NNW 1.6 km/h 3.2 km/h 78% 0 mm 1005 W/m2
11:13 13.8 °C 9.9 °C 1004.3 hPa NNW 1.6 km/h 3.2 km/h 77% 0 mm 297 W/m2
11:19 13.9 °C 9.3 °C 1004.3 hPa NNW 1.6 km/h 1.6 km/h 74% 0 mm 213 W/m2
11:25 13.8 °C 9.2 °C 1004.3 hPa Calm   1.6 km/h 74% 0 mm 160 W/m2
11:31 13.4 °C 9.1 °C 1003.9 hPa South 3.2 km/h 6.4 km/h 75% 0 mm 116 W/m2
11:38 13.1 °C 9.1 °C 1004.3 hPa SW 3.2 km/h 6.4 km/h 77% 0 mm 33 W/m2
11:43 12.6 °C 9.2 °C 1005 hPa NW 4.8 km/h 11.3 km/h 80% 6.6 mm 9 W/m2
11:49 10.1 °C 6.6 °C 1005 hPa NW 6.4 km/h 8 km/h 79% 24.64 mm 14 W/m2
11:55 8.9 °C 6.6 °C 1005 hPa NNW 6.4 km/h 11.3 km/h 85% 14.48 mm 16 W/m2
12:02 8.8 °C 6.7 °C 1004.6 hPa NNW 4.8 km/h 4.8 km/h 87% 5.84 mm 28 W/m2
12:08 8.8 °C 6.9 °C 1004.6 hPa NNW 1.6 km/h 4.8 km/h 88% 2.79 mm 49 W/m2
12:13 8.8 °C 7.1 °C 1004.6 hPa Calm     89% 1.52 mm 54 W/m2
12:19 9 °C 7.4 °C 1004.3 hPa Calm     90% 1.02 mm 118 W/m2
12:25 9.2 °C 7.7 °C 1004.3 hPa Calm     90% 0 mm 141 W/m2
12:32 9.5 °C 7.9 °C 1004.3 hPa Calm   3.2 km/h 90% 0 mm 214 W/m2
12:38 10.1 °C 8.7 °C 1003.9 hPa SSW 1.6 km/h 4.8 km/h 91% 0 mm 330 W/m2
12:43 10.3 °C 8.9 °C 1003.9 hPa WSW 3.2 km/h 8 km/h 91% 0 mm 559 W/m2
12:49 11.3 °C 10 °C 1003.9 hPa WSW 3.2 km/h 3.2 km/h 92% 0 mm 705 W/m2
12:55 11.9 °C 10.2 °C 1003.9 hPa WSW 1.6 km/h 3.2 km/h 89% 0 mm 986 W/m2
13:02 12.4 °C 10.3 °C 1003.6 hPa SSW 1.6 km/h 8 km/h 87% 0 mm 896 W/m2
13:08 13.3 °C 11 °C 1003.6 hPa West 3.2 km/h 8 km/h 86% 0 mm 951 W/m2
13:15 13.6 °C 9.8 °C 1003.6 hPa WNW 1.6 km/h 1.6 km/h 78% 0 mm 967 W/m2
13:22 14.2 °C 10.4 °C 1003.3 hPa West 1.6 km/h 4.8 km/h 78% 0 mm 958 W/m2
13:28 14.7 °C 11.1 °C 1003.3 hPa West 1.6 km/h 1.6 km/h 79% 0 mm 949 W/m2
13:33 15.2 °C 10.8 °C 1003.3 hPa WNW 1.6 km/h 6.4 km/h 75% 0 mm 1013 W/m2
13:39 15.2 °C 9.5 °C 1003.3 hPa NW 4.8 km/h 12.9 km/h 69% 0 mm 1111 W/m2
13:45 15.6 °C 10.6 °C 1003.3 hPa NNW 4.8 km/h 4.8 km/h 72% 0 mm 1139 W/m2
13:51 15.6 °C 9.4 °C 1003.3 hPa NNW 3.2 km/h 9.7 km/h 67% 0 mm 253 W/m2
13:58 15.7 °C 9.8 °C 1003.3 hPa WNW 4.8 km/h 4.8 km/h 68% 0 mm 1011 W/m2
14:03 15.5 °C 8.2 °C 1002.9 hPa NW 4.8 km/h 8 km/h 62% 0 mm 1021 W/m2
14:09 15.6 °C 9.1 °C 1002.9 hPa NW 4.8 km/h 4.8 km/h 65% 0 mm 1021 W/m2
14:15 16.2 °C 9.4 °C 1002.9 hPa WNW 4.8 km/h 8 km/h 64% 0 mm 1025 W/m2
14:21 15.9 °C 7.7 °C 1002.9 hPa NNW 6.4 km/h 12.9 km/h 58% 0 mm 1086 W/m2
14:28 16 °C 8.7 °C 1002.6 hPa NW 6.4 km/h 12.9 km/h 62% 0 mm 930 W/m2
14:33 16.2 °C 7.1 °C 1002.6 hPa WNW 4.8 km/h 6.4 km/h 55% 0 mm 949 W/m2
14:39 16 °C 8.2 °C 1002.3 hPa NNW 4.8 km/h 4.8 km/h 60% 0 mm 940 W/m2
14:45 16.3 °C 7.2 °C 1002.3 hPa NNW 6.4 km/h 6.4 km/h 55% 0 mm 930 W/m2
14:51 16.4 °C 7.9 °C 1002.3 hPa NW 6.4 km/h 14.5 km/h 57% 0 mm 919 W/m2
14:58 16.6 °C 7.2 °C 1002.3 hPa NW 4.8 km/h 14.5 km/h 54% 0 mm 867 W/m2
15:03 16.7 °C 7.3 °C 1002.3 hPa NW 4.8 km/h 8 km/h 54% 0 mm 849 W/m2
15:09 16.8 °C 6.6 °C 1001.9 hPa NNW 6.4 km/h 6.4 km/h 51% 0 mm 838 W/m2
15:15 16.9 °C 6.7 °C 1001.9 hPa North 8 km/h 8 km/h 51% 0 mm 826 W/m2
15:22 17 °C 5.3 °C 1001.6 hPa NW 6.4 km/h 11.3 km/h 46% 0 mm 816 W/m2
15:28 16.8 °C 6.6 °C 1001.6 hPa NW 6.4 km/h 12.9 km/h 51% 0 mm 805 W/m2
15:33 17.1 °C 6.6 °C 1001.6 hPa WNW 6.4 km/h 6.4 km/h 50% 0 mm 816 W/m2
15:39 17.4 °C 5.7 °C 1001.6 hPa NNW 6.4 km/h 8 km/h 46% 0 mm 812 W/m2
15:45 16.9 °C 6.2 °C 1001.6 hPa NW 8 km/h 8 km/h 49% 0 mm 176 W/m2
15:51 16.7 °C 5.9 °C 1001.6 hPa NNW 6.4 km/h 8 km/h 49% 0 mm 870 W/m2
15:58 16.3 °C 5.2 °C 1001.6 hPa WNW 6.4 km/h 8 km/h 48% 0 mm 213 W/m2
16:03 16.1 °C 5.7 °C 1001.6 hPa NNW 6.4 km/h 11.3 km/h 50% 0 mm 288 W/m2
16:09 16.9 °C 5.5 °C 1001.6 hPa NW 6.4 km/h 12.9 km/h 47% 0 mm 875 W/m2
16:15 16.8 °C 5.1 °C 1001.6 hPa NW 4.8 km/h 12.9 km/h 46% 0 mm 824 W/m2
16:21 17.1 °C 5.3 °C 1001.6 hPa NNW 6.4 km/h 11.3 km/h 46% 0 mm 784 W/m2
16:28 16.6 °C 4.9 °C 1001.6 hPa NNW 4.8 km/h 16.1 km/h 46% 0 mm 193 W/m2
16:33 16.2 °C 5.1 °C 1001.9 hPa NW 6.4 km/h 12.9 km/h 48% 0 mm 197 W/m2
16:39 15.8 °C 5.1 °C 1001.9 hPa NW 8 km/h 8 km/h 49% 0 mm 237 W/m2
16:45 16.5 °C 5.4 °C 1001.9 hPa SSE 4.8 km/h 8 km/h 48% 0 mm 770 W/m2
16:52 16.4 °C 5.7 °C 1001.9 hPa NW 4.8 km/h 4.8 km/h 49% 0 mm 754 W/m2
16:58 16.4 °C 4.8 °C 1001.9 hPa WSW 6.4 km/h 11.3 km/h 46% 0 mm 608 W/m2
17:03 15.9 °C 5.4 °C 1002.3 hPa NW 8 km/h 8 km/h 50% 0 mm 396 W/m2
17:09 15.4 °C 5.6 °C 1002.3 hPa NNW 8 km/h 11.3 km/h 52% 0 mm 167 W/m2
17:15 15.1 °C 6.1 °C 1002.3 hPa NW 8 km/h 20.9 km/h 55% 0 mm 107 W/m2
17:22 14.8 °C 5.6 °C 1002.3 hPa NW 8 km/h 8 km/h 54% 0 mm 95 W/m2
17:28 14.7 °C 6.5 °C 1002.6 hPa NW 6.4 km/h 8 km/h 58% 0 mm 70 W/m2
17:33 14.3 °C 5.6 °C 1002.6 hPa NW 6.4 km/h 14.5 km/h 56% 0 mm 97 W/m2
17:39 13.9 °C 5 °C 1002.9 hPa WNW 6.4 km/h 6.4 km/h 55% 0 mm 120 W/m2
17:45 13.6 °C 6 °C 1002.9 hPa NW 3.2 km/h 6.4 km/h 60% 0 mm 128 W/m2
17:51 13.3 °C 5 °C 1002.9 hPa NW 4.8 km/h 4.8 km/h 57% 0 mm 114 W/m2
17:58 13.2 °C 5.3 °C 1002.9 hPa NW 4.8 km/h 4.8 km/h 59% 0 mm 69 W/m2
18:03 13 °C 4.9 °C 1003.3 hPa NNW 3.2 km/h 4.8 km/h 58% 0 mm 44 W/m2
18:09 12.9 °C 5.6 °C 1003.3 hPa NNW 1.6 km/h 1.6 km/h 61% 0 mm 32 W/m2
18:15 12.7 °C 5.2 °C 1003.3 hPa West 1.6 km/h 6.4 km/h 60% 0 mm 39 W/m2
18:21 12.4 °C 5.1 °C 1003.3 hPa NW 4.8 km/h 6.4 km/h 61% 0 mm 70 W/m2
18:28 12.2 °C 5.2 °C 1003.3 hPa North 4.8 km/h 6.4 km/h 62% 0 mm 70 W/m2
18:33 12.1 °C 5.3 °C 1003.3 hPa NW 3.2 km/h 4.8 km/h 63% 0 mm 69 W/m2
18:39 12.1 °C 5.2 °C 1003.3 hPa NW 3.2 km/h 4.8 km/h 63% 0 mm 47 W/m2
18:45 12 °C 4.9 °C 1003.6 hPa NW 3.2 km/h 8 km/h 62% 0 mm 26 W/m2
18:52 11.7 °C 4.4 °C 1003.6 hPa WNW 6.4 km/h 6.4 km/h 61% 0 mm 26 W/m2
18:58 11.5 °C 4.7 °C 1003.9 hPa West 6.4 km/h 6.4 km/h 63% 0 mm 21 W/m2
19:03 11.4 °C 4.8 °C 1003.9 hPa WNW 4.8 km/h 6.4 km/h 64% 0 mm 21 W/m2
19:09 11.1 °C 5.2 °C 1003.9 hPa WNW 4.8 km/h 4.8 km/h 67% 0 mm 19 W/m2
19:15 10.6 °C 5.2 °C 1003.9 hPa NW 4.8 km/h 12.9 km/h 69% 0 mm 28 W/m2
19:21 10.5 °C 5.3 °C 1003.9 hPa NW 4.8 km/h 8 km/h 70% 0 mm 35 W/m2
19:28 10.4 °C 5.2 °C 1003.9 hPa NW 3.2 km/h 8 km/h 70% 0 mm 30 W/m2
19:33 10.4 °C 5.4 °C 1003.9 hPa NW 1.6 km/h 6.4 km/h 71% 0 mm 26 W/m2
19:39 10.3 °C 5.3 °C 1003.9 hPa WSW 3.2 km/h 4.8 km/h 71% 0 mm 16 W/m2
19:45 10.2 °C 5.2 °C 1003.9 hPa NW 3.2 km/h 4.8 km/h 71% 0 mm 12 W/m2
19:52 10.1 °C 5.2 °C 1003.9 hPa WNW 1.6 km/h 3.2 km/h 72% 0 mm 11 W/m2
19:58 9.9 °C 5.3 °C 1003.9 hPa WNW 1.6 km/h 3.2 km/h 73% 0 mm 9 W/m2
20:03 9.9 °C 5.3 °C 1003.9 hPa NW 1.6 km/h 4.8 km/h 73% 0 mm 7 W/m2
20:09 9.8 °C 5.4 °C 1004.3 hPa NW 1.6 km/h 1.6 km/h 74% 0 mm 5 W/m2
20:15 9.8 °C 5.6 °C 1004.3 hPa NW 1.6 km/h 1.6 km/h 75% 0 mm 0 W/m2
20:22 9.8 °C 5.6 °C 1004.3 hPa NW 1.6 km/h 1.6 km/h 75% 0 mm 0 W/m2
20:28 9.9 °C 5.7 °C 1004.6 hPa NW 1.6 km/h 1.6 km/h 75% 0 mm 0 W/m2
20:33 10 °C 5.8 °C 1004.6 hPa NW 1.6 km/h 8 km/h 75% 0 mm 0 W/m2
20:39 10.1 °C 5.8 °C 1005 hPa WNW 3.2 km/h 3.2 km/h 75% 0 mm 0 W/m2
20:45 10.1 °C 5.8 °C 1005 hPa NW 1.6 km/h 4.8 km/h 75% 0 mm 0 W/m2
20:51 10 °C 5.9 °C 1005 hPa WNW 1.6 km/h 1.6 km/h 76% 0 mm 0 W/m2
20:58 9.8 °C 5.7 °C 1005 hPa NNW 1.6 km/h 6.4 km/h 76% 0 mm 0 W/m2
21:03 9.7 °C 5.8 °C 1005 hPa NW 1.6 km/h 4.8 km/h 77% 0 mm 0 W/m2
21:09 9.6 °C 5.9 °C 1005.3 hPa NW 1.6 km/h 1.6 km/h 78% 0 mm 0 W/m2
21:15 9.4 °C 5.9 °C 1005.3 hPa WNW 1.6 km/h 9.7 km/h 79% 0 mm 0 W/m2
21:21 9.3 °C 6.1 °C 1005.3 hPa SW 3.2 km/h 3.2 km/h 80% 0 mm 0 W/m2
21:28 9.3 °C 6.2 °C 1005.3 hPa NNW 1.6 km/h 3.2 km/h 81% 0 mm 0 W/m2
21:33 9.3 °C 6.2 °C 1005.6 hPa WNW 1.6 km/h 6.4 km/h 81% 0 mm 0 W/m2
21:39 9.3 °C 6.2 °C 1005.6 hPa West 3.2 km/h 3.2 km/h 81% 0 mm 0 W/m2
21:45 9.4 °C 6.3 °C 1005.6 hPa West 1.6 km/h 3.2 km/h 81% 0 mm 0 W/m2
21:52 9.4 °C 6.3 °C 1005.6 hPa WNW 1.6 km/h 1.6 km/h 81% 0 mm 0 W/m2
21:58 9.4 °C 6.3 °C 1005.3 hPa WNW 1.6 km/h 4.8 km/h 81% 0 mm 0 W/m2
22:03 9.4 °C 6.3 °C 1005.6 hPa WSW 1.6 km/h 3.2 km/h 81% 0 mm 0 W/m2
22:09 9.4 °C 6.3 °C 1005.6 hPa NW 1.6 km/h 1.6 km/h 81% 0 mm 0 W/m2
22:15 9.4 °C 6.3 °C 1005.3 hPa NW 3.2 km/h 8 km/h 81% 0 mm 0 W/m2
22:21 9.4 °C 6.3 °C 1005.3 hPa NNW 1.6 km/h 3.2 km/h 81% 0 mm 0 W/m2
22:28 9.5 °C 6.4 °C 1005.3 hPa NW 1.6 km/h 6.4 km/h 81% 0 mm 0 W/m2
22:33 9.6 °C 6.4 °C 1005.3 hPa NNW 1.6 km/h 3.2 km/h 81% 0 mm 0 W/m2
22:39 9.6 °C 6.5 °C 1005.3 hPa West 1.6 km/h 1.6 km/h 81% 0 mm 0 W/m2
22:45 9.7 °C 6.4 °C 1005.3 hPa NW 1.6 km/h 3.2 km/h 80% 0 mm 0 W/m2
22:52 9.7 °C 6.6 °C 1005.3 hPa WNW 1.6 km/h 1.6 km/h 81% 0 mm 0 W/m2
22:58 9.7 °C 6.6 °C 1005.3 hPa NNW 1.6 km/h 1.6 km/h 81% 0 mm 0 W/m2
23:03 9.8 °C 6.5 °C 1005.6 hPa WNW 1.6 km/h 3.2 km/h 80% 0 mm 0 W/m2
23:09 9.8 °C 6.5 °C 1005.6 hPa WNW 1.6 km/h 4.8 km/h 80% 0 mm 0 W/m2
23:15 9.8 °C 6.5 °C 1005.3 hPa NW 3.2 km/h 6.4 km/h 80% 0 mm 0 W/m2
23:22 9.7 °C 6.6 °C 1005.3 hPa WNW 3.2 km/h 3.2 km/h 81% 0 mm 0 W/m2
23:28 9.6 °C 6.7 °C 1005.3 hPa West 1.6 km/h 3.2 km/h 82% 0 mm 0 W/m2
23:33 9.6 °C 6.6 °C 1005.6 hPa WNW 1.6 km/h 4.8 km/h 82% 0 mm 0 W/m2
23:39 9.6 °C 6.6 °C 1005.6 hPa WNW 1.6 km/h 1.6 km/h 82% 0 mm 0 W/m2
23:45 9.6 °C 6.7 °C 1005.6 hPa NW 1.6 km/h 3.2 km/h 82% 0 mm 0 W/m2
23:52 9.6 °C 6.8 °C 1005.6 hPa WNW 1.6 km/h 3.2 km/h 83% 0 mm 0 W/m2
23:58 9.6 °C 6.7 °C 1005.6 hPa NW 1.6 km/h 3.2 km/h 82% 0 mm 0 W/m2
Country Meadow, Clay, NY, USA
Compliments of Weather Underground - 2 mb